Time;durP1;ratioP1;P1;durP2;ratioP2;P2;SDS_P1;SDS_P2;PMS_P1;PMS_P2;Temp;Humidity;BMP_temperature;BMP_pressure;BME280_temperature;BME280_humidity;BME280_pressure;Samples;Min_cycle;Max_cycle;Signal;HPM_P1;HPM_P2
2021/08/14 00:02:21;;;;;;;25.27;16.20;;;;;;;;;;4853954;29;20040;-75
2021/08/14 00:04:47;;;;;;;28.55;16.10;;;;;;;;;;4853842;29;20360;-75
2021/08/14 00:07:12;;;;;;;31.58;15.73;;;;;;;;;;4853767;29;20038;-75
2021/08/14 00:09:38;;;;;;;29.55;15.77;;;;;;;;;;4839833;29;20061;-74
2021/08/14 00:12:04;;;;;;;25.92;15.60;;;;;;;;;;4840014;29;20026;-73
2021/08/14 00:14:30;;;;;;;26.33;16.98;;;;;;;;;;4839885;29;20674;-74
2021/08/14 00:16:56;;;;;;;23.95;15.32;;;;;;;;;;4853510;29;20062;-74
2021/08/14 00:19:21;;;;;;;26.27;15.88;;;;;;;;;;4853941;29;20026;-76
2021/08/14 00:21:47;;;;;;;30.20;15.88;;;;;;;;;;4839387;29;20512;-74
2021/08/14 00:24:12;;;;;;;25.38;15.95;;;;;;;;;;4838219;29;20406;-76
2021/08/14 00:26:38;;;;;;;30.92;15.98;;;;;;;;;;4839249;29;20105;-76
2021/08/14 00:29:04;;;;;;;28.20;15.57;;;;;;;;;;4839485;29;20053;-73
2021/08/14 00:31:29;;;;;;;30.95;15.73;;;;;;;;;;4840020;29;20527;-73
2021/08/14 00:33:56;;;;;;;26.70;15.38;;;;;;;;;;4853586;29;20470;-73
2021/08/14 00:36:23;;;;;;;27.60;15.48;;;;;;;;;;4853809;29;20510;-74
2021/08/14 00:38:49;;;;;;;25.40;16.05;;;;;;;;;;4839302;29;20058;-73
2021/08/14 00:41:14;;;;;;;28.77;15.55;;;;;;;;;;4839442;29;20040;-72
2021/08/14 00:43:40;;;;;;;29.58;16.15;;;;;;;;;;4837909;29;20439;-73
2021/08/14 00:46:06;;;;;;;29.63;16.17;;;;;;;;;;4839412;29;20300;-72
2021/08/14 00:48:32;;;;;;;28.27;16.38;;;;;;;;;;4839325;29;20117;-74
2021/08/14 00:50:58;;;;;;;34.20;15.52;;;;;;;;;;4838867;29;20145;-74
2021/08/14 00:53:24;;;;;;;30.73;16.02;;;;;;;;;;4839179;29;20509;-73
2021/08/14 00:55:51;;;;;;;30.35;16.75;;;;;;;;;;4839382;29;20053;-73
2021/08/14 00:58:17;;;;;;;25.50;15.48;;;;;;;;;;4839157;29;20103;-76
2021/08/14 01:00:43;;;;;;;30.75;16.20;;;;;;;;;;4838774;29;20486;-75
2021/08/14 01:03:10;;;;;;;28.25;16.83;;;;;;;;;;4852941;29;20034;-75
2021/08/14 01:05:43;;;;;;;30.42;15.85;;;;;;;;;;4852704;29;20120;-73
2021/08/14 01:08:09;;;;;;;25.35;16.60;;;;;;;;;;4837710;29;20026;-72
2021/08/14 01:10:34;;;;;;;32.75;16.45;;;;;;;;;;4853203;29;20408;-73
2021/08/14 01:13:00;;;;;;;31.25;17.50;;;;;;;;;;4853161;29;20084;-73
2021/08/14 01:15:26;;;;;;;29.55;15.95;;;;;;;;;;4839702;29;20545;-73
2021/08/14 01:17:52;;;;;;;26.02;17.20;;;;;;;;;;4837958;29;20372;-73
2021/08/14 01:20:17;;;;;;;28.77;19.15;;;;;;;;;;4839501;29;20033;-73
2021/08/14 01:22:43;;;;;;;26.20;16.35;;;;;;;;;;4838990;29;20486;-73
2021/08/14 01:25:10;;;;;;;26.38;16.85;;;;;;;;;;4837625;29;20030;-73
2021/08/14 01:27:40;;;;;;;33.67;16.63;;;;;;;;;;4837964;29;20030;-73
2021/08/14 01:30:06;;;;;;;36.25;16.65;;;;;;;;;;4839106;29;20030;-73
2021/08/14 01:32:33;;;;;;;25.45;16.40;;;;;;;;;;4838844;29;20065;-73
2021/08/14 01:34:59;;;;;;;30.63;16.65;;;;;;;;;;4837254;29;20042;-73
2021/08/14 01:37:26;;;;;;;31.35;17.50;;;;;;;;;;4838500;29;20144;-73
2021/08/14 01:39:51;;;;;;;25.77;15.15;;;;;;;;;;4838670;29;20053;-73
2021/08/14 01:42:17;;;;;;;24.80;16.13;;;;;;;;;;4852828;29;20585;-73
2021/08/14 01:44:42;;;;;;;27.02;16.92;;;;;;;;;;4837347;29;20030;-75
2021/08/14 01:47:09;;;;;;;27.50;16.75;;;;;;;;;;4852633;29;20089;-75
2021/08/14 01:49:35;;;;;;;25.48;15.27;;;;;;;;;;4837439;29;20049;-75
2021/08/14 01:52:08;;;;;;;26.25;16.48;;;;;;;;;;4852411;29;20062;-74
2021/08/14 01:54:34;;;;;;;25.63;17.05;;;;;;;;;;4838578;29;20059;-74
2021/08/14 01:56:59;;;;;;;26.90;15.93;;;;;;;;;;4852228;29;20313;-74
2021/08/14 01:59:25;;;;;;;31.10;18.40;;;;;;;;;;4852534;29;20026;-73
2021/08/14 02:01:50;;;;;;;29.20;16.85;;;;;;;;;;4852302;29;20392;-74
2021/08/14 02:04:16;;;;;;;26.17;17.23;;;;;;;;;;4838353;29;20037;-74
2021/08/14 02:06:41;;;;;;;31.17;17.05;;;;;;;;;;4838295;29;20040;-74
2021/08/14 02:09:06;;;;;;;24.40;15.77;;;;;;;;;;4838433;29;20026;-73
2021/08/14 02:11:35;;;;;;;27.27;15.52;;;;;;;;;;4852419;29;20030;-73
2021/08/14 02:14:00;;;;;;;27.67;15.85;;;;;;;;;;4838220;29;20022;-74
2021/08/14 02:16:28;;;;;;;32.13;17.00;;;;;;;;;;4838541;29;20057;-73
2021/08/14 02:18:54;;;;;;;31.83;16.98;;;;;;;;;;4854732;29;20635;-75
2021/08/14 02:21:20;;;;;;;27.15;16.20;;;;;;;;;;4842992;29;20117;-74
2021/08/14 02:23:45;;;;;;;35.28;17.02;;;;;;;;;;4855352;29;20037;-73
2021/08/14 02:26:11;;;;;;;25.05;16.27;;;;;;;;;;4855757;29;20030;-74
2021/08/14 02:28:36;;;;;;;26.50;16.48;;;;;;;;;;4840357;29;20026;-73
2021/08/14 02:31:04;;;;;;;31.55;17.73;;;;;;;;;;4841439;29;20069;-72
2021/08/14 02:33:30;;;;;;;27.67;17.27;;;;;;;;;;4840358;29;20032;-72
2021/08/14 02:35:56;;;;;;;27.02;16.48;;;;;;;;;;4841563;29;20106;-72
2021/08/14 02:38:21;;;;;;;33.08;17.20;;;;;;;;;;4840177;29;20137;-73
2021/08/14 02:40:47;;;;;;;26.58;16.85;;;;;;;;;;4855649;29;20098;-73
2021/08/14 02:43:14;;;;;;;30.88;17.05;;;;;;;;;;4855456;29;20133;-72
2021/08/14 02:45:41;;;;;;;27.25;16.00;;;;;;;;;;4855303;29;20026;-74
2021/08/14 02:48:07;;;;;;;29.75;17.15;;;;;;;;;;4855443;29;20506;-73
2021/08/14 02:50:32;;;;;;;28.95;17.02;;;;;;;;;;4855205;29;20034;-74
2021/08/14 02:52:58;;;;;;;32.35;17.25;;;;;;;;;;4840820;29;20041;-74
2021/08/14 02:55:24;;;;;;;34.45;16.77;;;;;;;;;;4854954;29;20044;-74
2021/08/14 02:57:49;;;;;;;24.27;15.88;;;;;;;;;;4840894;29;20042;-74
2021/08/14 03:00:15;;;;;;;29.17;16.42;;;;;;;;;;4841466;29;20078;-73
2021/08/14 03:02:41;;;;;;;33.25;17.13;;;;;;;;;;4841012;29;20426;-74
2021/08/14 03:05:07;;;;;;;32.05;17.13;;;;;;;;;;4839772;29;20045;-74
2021/08/14 03:07:33;;;;;;;25.33;15.75;;;;;;;;;;4855230;29;20029;-74
2021/08/14 03:09:59;;;;;;;27.67;16.42;;;;;;;;;;4840862;29;20037;-73
2021/08/14 03:12:25;;;;;;;28.92;17.33;;;;;;;;;;4840841;29;20317;-74
2021/08/14 03:14:51;;;;;;;27.50;15.82;;;;;;;;;;4840772;29;20032;-73
2021/08/14 03:17:16;;;;;;;30.67;17.58;;;;;;;;;;4854913;29;20033;-73
2021/08/14 03:19:42;;;;;;;33.63;15.98;;;;;;;;;;4840486;29;20029;-75
2021/08/14 03:22:08;;;;;;;41.05;16.35;;;;;;;;;;4840653;29;20032;-74
2021/08/14 03:24:33;;;;;;;28.45;16.38;;;;;;;;;;4840890;29;20034;-74
2021/08/14 03:26:59;;;;;;;29.50;17.73;;;;;;;;;;4854281;29;20487;-74
2021/08/14 03:29:25;;;;;;;37.53;17.55;;;;;;;;;;4853567;29;20065;-73
2021/08/14 03:31:50;;;;;;;28.20;16.75;;;;;;;;;;4840499;29;20026;-72
2021/08/14 03:34:16;;;;;;;24.52;15.80;;;;;;;;;;4839204;29;20471;-71
2021/08/14 03:36:42;;;;;;;27.83;16.92;;;;;;;;;;4854094;29;20034;-74
2021/08/14 03:39:07;;;;;;;27.90;16.73;;;;;;;;;;4853952;29;20054;-73
2021/08/14 03:41:34;;;;;;;32.33;17.75;;;;;;;;;;4840691;29;20030;-72
2021/08/14 03:44:00;;;;;;;37.13;17.88;;;;;;;;;;4854074;29;20067;-73
2021/08/14 03:46:26;;;;;;;27.75;17.13;;;;;;;;;;4854428;29;20077;-73
2021/08/14 03:48:51;;;;;;;33.88;17.85;;;;;;;;;;4854229;29;20030;-72
2021/08/14 03:51:17;;;;;;;25.92;16.63;;;;;;;;;;4840287;29;20040;-72
2021/08/14 03:53:42;;;;;;;31.15;18.17;;;;;;;;;;4854355;29;20042;-72
2021/08/14 03:56:08;;;;;;;27.58;16.45;;;;;;;;;;4839962;29;20073;-72
2021/08/14 03:58:34;;;;;;;29.38;15.90;;;;;;;;;;4854062;29;20048;-71
2021/08/14 04:01:00;;;;;;;30.42;16.40;;;;;;;;;;4839744;29;20037;-73
2021/08/14 04:03:26;;;;;;;30.85;15.98;;;;;;;;;;4839905;29;20034;-72
2021/08/14 04:05:51;;;;;;;30.60;15.63;;;;;;;;;;4839503;29;20046;-72
2021/08/14 04:08:18;;;;;;;31.60;15.43;;;;;;;;;;4853990;29;20025;-73
2021/08/14 04:10:43;;;;;;;34.85;15.82;;;;;;;;;;4853964;29;20060;-75
2021/08/14 04:13:09;;;;;;;30.58;16.02;;;;;;;;;;4839948;29;20494;-75
2021/08/14 04:15:34;;;;;;;41.85;16.60;;;;;;;;;;4840190;29;20436;-75
2021/08/14 04:18:00;;;;;;;30.67;16.77;;;;;;;;;;4838222;29;20033;-75
2021/08/14 04:20:26;;;;;;;32.22;17.23;;;;;;;;;;4853669;29;20526;-74
2021/08/14 04:22:51;;;;;;;34.63;18.15;;;;;;;;;;4838295;29;20030;-75
2021/08/14 04:25:17;;;;;;;28.98;16.80;;;;;;;;;;4839355;29;20041;-75
2021/08/14 04:27:42;;;;;;;32.83;18.48;;;;;;;;;;4853476;29;20050;-76
2021/08/14 04:30:08;;;;;;;32.70;17.80;;;;;;;;;;4839250;29;20621;-72
2021/08/14 04:32:35;;;;;;;33.38;18.00;;;;;;;;;;4853603;29;20041;-73
2021/08/14 04:35:12;;;;;;;31.35;18.45;;;;;;;;;;4839286;29;20045;-74
2021/08/14 04:37:38;;;;;;;32.95;18.83;;;;;;;;;;4839318;29;20399;-72
2021/08/14 04:40:06;;;;;;;31.50;17.30;;;;;;;;;;4853583;29;20523;-74
2021/08/14 04:42:31;;;;;;;31.42;17.02;;;;;;;;;;4839415;29;20093;-74
2021/08/14 04:44:57;;;;;;;28.92;18.65;;;;;;;;;;4837655;29;20387;-73
2021/08/14 04:47:22;;;;;;;27.40;17.30;;;;;;;;;;4853070;29;20034;-74
2021/08/14 04:49:48;;;;;;;31.92;19.13;;;;;;;;;;4852840;29;20038;-73
2021/08/14 04:52:14;;;;;;;31.02;18.20;;;;;;;;;;4838932;29;20034;-74
2021/08/14 04:54:40;;;;;;;31.88;17.15;;;;;;;;;;4838972;29;20347;-74
2021/08/14 04:57:05;;;;;;;33.30;16.77;;;;;;;;;;4838968;29;20401;-73
2021/08/14 04:59:31;;;;;;;31.73;16.73;;;;;;;;;;4837747;29;20037;-73
2021/08/14 05:01:57;;;;;;;33.05;17.35;;;;;;;;;;4838880;29;20112;-73
2021/08/14 05:04:23;;;;;;;37.83;17.20;;;;;;;;;;4839202;29;20037;-73
2021/08/14 05:06:50;;;;;;;35.78;18.42;;;;;;;;;;4853023;29;20045;-74
2021/08/14 05:09:16;;;;;;;37.17;17.65;;;;;;;;;;4838369;29;20042;-74
2021/08/14 05:11:42;;;;;;;30.77;16.58;;;;;;;;;;4852912;29;20061;-74
2021/08/14 05:14:07;;;;;;;33.40;17.17;;;;;;;;;;4838972;29;20062;-74
2021/08/14 05:16:36;;;;;;;33.25;17.25;;;;;;;;;;4853131;29;20497;-74
2021/08/14 05:19:02;;;;;;;36.08;16.83;;;;;;;;;;4853102;29;20129;-74
2021/08/14 05:21:29;;;;;;;33.92;16.60;;;;;;;;;;4839247;29;20034;-73
2021/08/14 05:23:55;;;;;;;34.08;17.67;;;;;;;;;;4838708;29;20148;-74
2021/08/14 05:26:20;;;;;;;36.08;18.88;;;;;;;;;;4853269;29;20494;-72
2021/08/14 05:28:46;;;;;;;36.33;18.92;;;;;;;;;;4853129;29;20086;-72
2021/08/14 05:31:11;;;;;;;30.20;18.52;;;;;;;;;;4852549;29;20566;-73
2021/08/14 05:33:37;;;;;;;43.55;19.13;;;;;;;;;;4853247;29;20033;-73
2021/08/14 05:36:02;;;;;;;40.70;18.70;;;;;;;;;;4838669;29;20064;-73
2021/08/14 05:38:28;;;;;;;29.98;18.50;;;;;;;;;;4838795;29;20056;-73
2021/08/14 05:40:53;;;;;;;37.42;20.02;;;;;;;;;;4852781;29;20045;-73
2021/08/14 05:43:19;;;;;;;36.90;20.90;;;;;;;;;;4838686;29;20531;-73
2021/08/14 05:45:44;;;;;;;39.13;21.00;;;;;;;;;;4852617;29;20038;-73
2021/08/14 05:48:10;;;;;;;33.47;19.40;;;;;;;;;;4838983;29;20423;-74
2021/08/14 05:50:36;;;;;;;37.20;19.70;;;;;;;;;;4839055;29;20042;-75
2021/08/14 05:53:02;;;;;;;34.67;19.15;;;;;;;;;;4853968;29;20090;-73
2021/08/14 05:55:27;;;;;;;34.40;18.50;;;;;;;;;;4842448;29;20025;-73
2021/08/14 05:57:54;;;;;;;35.88;18.58;;;;;;;;;;4842139;29;20038;-74
2021/08/14 06:00:20;;;;;;;30.55;17.30;;;;;;;;;;4842316;29;20065;-73
2021/08/14 06:02:45;;;;;;;35.05;18.20;;;;;;;;;;4842291;29;20044;-73
2021/08/14 06:05:11;;;;;;;32.85;16.70;;;;;;;;;;4841970;29;20026;-74
2021/08/14 06:07:37;;;;;;;31.80;16.85;;;;;;;;;;4856437;29;20467;-74
2021/08/14 06:10:06;;;;;;;33.45;17.85;;;;;;;;;;4855865;29;20034;-74
2021/08/14 06:12:32;;;;;;;29.00;16.08;;;;;;;;;;4842396;29;20386;-73
2021/08/14 06:14:57;;;;;;;32.67;17.05;;;;;;;;;;4856241;29;20029;-74
2021/08/14 06:17:22;;;;;;;31.98;16.95;;;;;;;;;;4842014;29;20044;-73
2021/08/14 06:19:48;;;;;;;27.35;14.98;;;;;;;;;;4856189;29;20487;-73
2021/08/14 06:22:13;;;;;;;28.70;15.07;;;;;;;;;;4841894;29;20459;-73
2021/08/14 06:24:39;;;;;;;33.22;15.90;;;;;;;;;;4841922;29;20038;-74
2021/08/14 06:27:05;;;;;;;30.35;15.90;;;;;;;;;;4841515;29;20034;-73
2021/08/14 06:29:30;;;;;;;33.10;15.95;;;;;;;;;;4840304;29;20386;-74
2021/08/14 06:31:55;;;;;;;29.02;16.25;;;;;;;;;;4841274;29;20034;-74
2021/08/14 06:34:21;;;;;;;33.65;15.32;;;;;;;;;;4840362;29;20042;-73
2021/08/14 06:36:47;;;;;;;31.50;14.98;;;;;;;;;;4841056;29;20030;-72
2021/08/14 06:39:12;;;;;;;32.22;15.90;;;;;;;;;;4842174;29;20078;-73
2021/08/14 06:41:38;;;;;;;30.00;15.82;;;;;;;;;;4856706;29;20128;-73
2021/08/14 06:44:03;;;;;;;29.00;15.85;;;;;;;;;;4841855;29;20061;-73
2021/08/14 06:46:29;;;;;;;35.35;16.55;;;;;;;;;;4855560;29;20034;-74
2021/08/14 06:48:55;;;;;;;30.73;16.42;;;;;;;;;;4855574;29;20034;-74
2021/08/14 06:51:21;;;;;;;28.10;16.42;;;;;;;;;;4840278;29;20046;-73
2021/08/14 06:53:48;;;;;;;23.63;15.02;;;;;;;;;;4855428;29;20098;-73
2021/08/14 06:56:14;;;;;;;26.63;14.80;;;;;;;;;;4841062;29;20033;-73
2021/08/14 06:58:39;;;;;;;34.20;16.95;;;;;;;;;;4841401;29;20496;-72
2021/08/14 07:01:05;;;;;;;32.33;16.40;;;;;;;;;;4840885;29;20034;-74
2021/08/14 07:03:30;;;;;;;30.95;16.92;;;;;;;;;;4855029;29;20026;-73
2021/08/14 07:05:56;;;;;;;37.47;17.55;;;;;;;;;;4840767;29;20363;-75
2021/08/14 07:08:21;;;;;;;28.83;15.95;;;;;;;;;;4840117;29;20050;-72
2021/08/14 07:10:47;;;;;;;33.63;18.70;;;;;;;;;;4841262;29;20060;-73
2021/08/14 07:13:12;;;;;;;35.05;16.42;;;;;;;;;;4841016;29;20049;-76
2021/08/14 07:15:38;;;;;;;34.92;17.02;;;;;;;;;;4839547;29;20496;-76
2021/08/14 07:18:03;;;;;;;38.35;16.10;;;;;;;;;;4839567;29;20296;-75
2021/08/14 07:20:29;;;;;;;29.63;17.35;;;;;;;;;;4839081;29;20544;-76
2021/08/14 07:22:55;;;;;;;29.48;14.88;;;;;;;;;;4840595;29;20434;-75
2021/08/14 07:25:20;;;;;;;27.02;14.75;;;;;;;;;;4838954;29;20036;-76
2021/08/14 07:27:46;;;;;;;32.58;14.93;;;;;;;;;;4854419;29;20053;-76
2021/08/14 07:30:12;;;;;;;31.55;16.05;;;;;;;;;;4854220;29;20390;-76
2021/08/14 07:32:37;;;;;;;29.98;16.90;;;;;;;;;;4840464;29;20037;-76
2021/08/14 07:35:04;;;;;;;28.88;16.45;;;;;;;;;;4840103;29;20037;-76
2021/08/14 07:37:29;;;;;;;31.05;16.52;;;;;;;;;;4854163;29;20025;-76
2021/08/14 07:39:55;;;;;;;28.33;16.58;;;;;;;;;;4854127;29;20191;-74
2021/08/14 07:42:21;;;;;;;35.65;18.92;;;;;;;;;;4854421;29;20125;-76
2021/08/14 07:44:47;;;;;;;29.08;15.65;;;;;;;;;;4839907;29;20117;-76
2021/08/14 07:47:12;;;;;;;31.63;16.15;;;;;;;;;;4853925;29;20026;-75
2021/08/14 07:49:38;;;;;;;31.33;16.42;;;;;;;;;;4839012;29;20064;-76
2021/08/14 07:52:04;;;;;;;28.60;14.40;;;;;;;;;;4838961;29;20086;-76
2021/08/14 07:54:29;;;;;;;32.83;15.20;;;;;;;;;;4839947;29;20065;-76
2021/08/14 07:56:56;;;;;;;29.67;15.45;;;;;;;;;;4838942;29;20041;-73
2021/08/14 07:59:23;;;;;;;27.27;15.57;;;;;;;;;;4840271;29;20090;-75
2021/08/14 08:01:49;;;;;;;25.02;14.07;;;;;;;;;;4840532;29;20026;-73
2021/08/14 08:04:15;;;;;;;26.95;14.80;;;;;;;;;;4840259;29;20045;-72
2021/08/14 08:06:41;;;;;;;25.45;13.95;;;;;;;;;;4840308;29;20030;-78
2021/08/14 08:09:07;;;;;;;31.83;14.18;;;;;;;;;;4854059;29;20502;-78
2021/08/14 08:11:32;;;;;;;28.98;15.40;;;;;;;;;;4839959;29;20219;-76
2021/08/14 08:13:58;;;;;;;29.45;15.82;;;;;;;;;;4854066;29;20112;-76
2021/08/14 08:16:23;;;;;;;28.77;14.60;;;;;;;;;;4839226;29;20022;-76
2021/08/14 08:18:49;;;;;;;25.98;14.80;;;;;;;;;;4838719;29;20082;-76
2021/08/14 08:21:14;;;;;;;28.45;15.32;;;;;;;;;;4840146;29;20029;-75
2021/08/14 08:23:40;;;;;;;30.58;14.45;;;;;;;;;;4853889;29;20502;-76
2021/08/14 08:26:05;;;;;;;23.95;13.57;;;;;;;;;;4839233;29;20608;-77
2021/08/14 08:28:31;;;;;;;29.35;14.65;;;;;;;;;;4839325;29;20044;-77
2021/08/14 08:30:56;;;;;;;36.17;15.40;;;;;;;;;;4839245;29;20029;-76
2021/08/14 08:33:22;;;;;;;23.85;13.80;;;;;;;;;;4853196;29;20185;-76
2021/08/14 08:35:47;;;;;;;22.08;13.85;;;;;;;;;;4853385;29;20507;-76
2021/08/14 08:38:13;;;;;;;30.45;15.23;;;;;;;;;;4837515;29;20049;-76
2021/08/14 08:40:40;;;;;;;33.50;15.32;;;;;;;;;;4837898;29;20042;-77
2021/08/14 08:43:06;;;;;;;25.52;14.82;;;;;;;;;;4853149;29;20069;-75
2021/08/14 08:45:33;;;;;;;25.10;14.65;;;;;;;;;;4839204;29;20113;-75
2021/08/14 08:47:59;;;;;;;30.58;15.10;;;;;;;;;;4839350;29;20065;-75
2021/08/14 08:50:28;;;;;;;26.88;15.32;;;;;;;;;;4852926;29;20030;-76
2021/08/14 08:52:54;;;;;;;33.90;15.60;;;;;;;;;;4838072;29;20367;-76
2021/08/14 08:55:22;;;;;;;30.05;14.75;;;;;;;;;;4839018;29;20041;-74
2021/08/14 08:57:47;;;;;;;26.15;15.75;;;;;;;;;;4853227;29;20040;-75
2021/08/14 09:00:17;;;;;;;29.95;16.10;;;;;;;;;;4852934;29;20033;-76
2021/08/14 09:02:45;;;;;;;28.23;15.03;;;;;;;;;;4853244;29;20033;-76
2021/08/14 09:05:19;;;;;;;26.50;14.90;;;;;;;;;;4838674;29;20090;-73
2021/08/14 09:07:46;;;;;;;28.38;14.82;;;;;;;;;;4839106;29;20037;-76
2021/08/14 09:10:23;;;;;;;26.30;15.82;;;;;;;;;;4838770;29;20037;-75
2021/08/14 09:12:49;;;;;;;25.75;14.98;;;;;;;;;;4852719;29;20125;-76
2021/08/14 09:15:35;;;;;;;25.85;13.90;;;;;;;;;;4852686;29;20029;-76
2021/08/14 09:18:02;;;;;;;26.08;14.68;;;;;;;;;;4838566;29;20513;-75
2021/08/14 09:20:28;;;;;;;31.25;16.08;;;;;;;;;;4852990;29;20070;-75
2021/08/14 09:23:03;;;;;;;25.95;14.73;;;;;;;;;;4852881;29;20129;-75
2021/08/14 09:25:40;;;;;;;33.35;15.73;;;;;;;;;;4838851;29;20050;-76
2021/08/14 09:28:06;;;;;;;23.10;13.43;;;;;;;;;;4841864;29;20037;-76
2021/08/14 09:30:49;;;;;;;27.70;14.10;;;;;;;;;;4856597;29;20041;-76
2021/08/14 09:33:19;;;;;;;23.25;13.90;;;;;;;;;;4842307;29;20034;-76
2021/08/14 09:35:46;;;;;;;26.00;13.80;;;;;;;;;;4842704;29;20022;-76
2021/08/14 09:38:14;;;;;;;28.42;15.60;;;;;;;;;;4841882;29;20133;-76
2021/08/14 09:40:45;;;;;;;28.00;15.50;;;;;;;;;;4856451;29;20438;-75
2021/08/14 09:43:12;;;;;;;26.30;14.32;;;;;;;;;;4856194;29;20543;-74
2021/08/14 09:45:39;;;;;;;29.02;15.07;;;;;;;;;;4842214;29;20049;-73
2021/08/14 09:48:20;;;;;;;30.20;14.50;;;;;;;;;;4842050;29;20030;-74
2021/08/14 09:50:46;;;;;;;;;;;;;;;;;;4856575;29;20034;-74
2021/08/14 09:53:18;;;;;;;23.83;14.60;;;;;;;;;;4855989;29;19936;-74
2021/08/14 09:55:46;;;;;;;31.52;14.23;;;;;;;;;;4842089;29;20025;-73
2021/08/14 09:58:15;;;;;;;24.05;14.52;;;;;;;;;;4840498;29;20054;-73
2021/08/14 10:00:42;;;;;;;29.60;15.18;;;;;;;;;;4841819;29;20113;-73
2021/08/14 10:03:08;;;;;;;29.35;14.30;;;;;;;;;;4855588;29;20090;-74
2021/08/14 10:05:34;;;;;;;25.88;16.15;;;;;;;;;;4855671;29;20038;-74
2021/08/14 10:08:01;;;;;;;23.50;14.82;;;;;;;;;;4855847;29;20038;-73
2021/08/14 10:10:28;;;;;;;28.75;15.43;;;;;;;;;;4841427;29;20030;-73
2021/08/14 10:12:56;;;;;;;21.63;15.15;;;;;;;;;;4841713;29;20044;-75
2021/08/14 10:15:22;;;;;;;29.95;15.63;;;;;;;;;;4855443;29;20497;-74
2021/08/14 10:17:48;;;;;;;32.38;16.58;;;;;;;;;;4840219;29;20046;-75
2021/08/14 10:20:15;;;;;;;31.75;16.75;;;;;;;;;;4841068;29;20040;-74
2021/08/14 10:22:41;;;;;;;25.20;14.73;;;;;;;;;;4855473;29;20062;-74
2021/08/14 10:25:15;;;;;;;28.13;16.42;;;;;;;;;;4841228;29;20038;-73
2021/08/14 10:27:59;;;;;;;31.20;17.65;;;;;;;;;;4855349;29;20125;-75
2021/08/14 10:30:49;;;;;;;27.52;16.05;;;;;;;;;;4855058;29;20121;-76
2021/08/14 10:33:26;;;;;;;37.75;20.02;;;;;;;;;;4855060;29;20030;-74
2021/08/14 10:35:53;;;;;;;25.95;14.48;;;;;;;;;;4840028;29;20033;-74
2021/08/14 10:38:44;;;;;;;25.33;15.55;;;;;;;;;;4840129;29;20114;-74
2021/08/14 10:41:10;;;;;;;27.05;14.20;;;;;;;;;;4855076;29;20063;-74
2021/08/14 10:43:51;;;;;;;25.65;13.93;;;;;;;;;;4839849;29;20053;-74
2021/08/14 10:46:32;;;;;;;27.35;13.32;;;;;;;;;;4840707;29;20106;-75
2021/08/14 10:48:59;;;;;;;24.55;13.23;;;;;;;;;;4839713;29;20040;-75
2021/08/14 10:51:47;;;;;;;18.50;11.95;;;;;;;;;;4841265;29;20034;-73
2021/08/14 10:54:13;;;;;;;18.73;10.93;;;;;;;;;;4839737;29;20033;-75
2021/08/14 10:57:08;;;;;;;21.63;12.48;;;;;;;;;;4841202;29;20090;-73
2021/08/14 10:59:39;;;;;;;17.60;11.27;;;;;;;;;;4836368;29;20368;-74
2021/08/14 11:02:27;;;;;;;20.33;11.48;;;;;;;;;;4822633;29;20118;-74
2021/08/14 11:04:56;;;;;;;18.17;11.93;;;;;;;;;;4822247;29;20030;-75
2021/08/14 11:07:21;;;;;;;20.30;12.13;;;;;;;;;;4822386;29;20558;-73
2021/08/14 11:09:52;;;;;;;22.88;11.75;;;;;;;;;;4819947;29;20045;-74
2021/08/14 11:12:32;;;;;;;22.10;13.05;;;;;;;;;;4820406;29;20031;-73
2021/08/14 11:15:20;;;;;;;19.52;12.52;;;;;;;;;;4821626;29;20023;-74
2021/08/14 11:17:53;;;;;;;20.15;12.80;;;;;;;;;;4822232;29;20059;-74
2021/08/14 11:20:19;;;;;;;25.42;13.40;;;;;;;;;;4822232;29;20502;-73
2021/08/14 11:22:47;;;;;;;24.17;12.93;;;;;;;;;;4822491;29;20030;-74
2021/08/14 11:25:33;;;;;;;21.40;11.30;;;;;;;;;;4821300;29;20053;-75
2021/08/14 11:28:10;;;;;;;20.38;12.13;;;;;;;;;;4822319;29;20558;-75
2021/08/14 11:30:38;;;;;;;24.48;11.43;;;;;;;;;;4822162;29;20041;-74
2021/08/14 11:33:05;;;;;;;18.50;11.13;;;;;;;;;;4820669;29;20069;-75
2021/08/14 11:35:34;;;;;;;20.20;11.07;;;;;;;;;;4820684;29;20030;-75
2021/08/14 11:38:01;;;;;;;25.42;11.57;;;;;;;;;;4821763;29;20159;-73
2021/08/14 11:40:34;;;;;;;20.92;11.60;;;;;;;;;;4820497;29;20046;-73
2021/08/14 11:43:05;;;;;;;18.92;11.55;;;;;;;;;;4820888;29;20129;-74
2021/08/14 11:45:32;;;;;;;;;;;;;;;;;;4821023;29;20045;-74
2021/08/14 11:47:59;;;;;;;19.80;10.85;;;;;;;;;;4822225;29;19912;-73
2021/08/14 11:50:35;;;;;;;16.45;11.35;;;;;;;;;;4821370;29;20035;-73
2021/08/14 11:53:01;;;;;;;20.35;11.55;;;;;;;;;;4822745;29;20034;-74
2021/08/14 11:55:26;;;;;;;21.02;11.57;;;;;;;;;;4822421;29;20026;-74
2021/08/14 11:57:52;;;;;;;19.67;11.55;;;;;;;;;;4820909;29;20034;-74
2021/08/14 12:00:17;;;;;;;21.27;11.63;;;;;;;;;;4821752;29;20038;-73
2021/08/14 12:02:47;;;;;;;19.63;11.30;;;;;;;;;;4820356;29;20034;-74
2021/08/14 12:05:21;;;;;;;19.97;11.60;;;;;;;;;;4820277;29;20087;-74
2021/08/14 12:07:47;;;;;;;22.13;11.13;;;;;;;;;;4821779;29;20265;-74
2021/08/14 12:10:13;;;;;;;23.15;10.55;;;;;;;;;;4821545;29;20030;-74
2021/08/14 12:12:38;;;;;;;14.82;9.57;;;;;;;;;;4820306;29;20057;-74
2021/08/14 12:15:13;;;;;;;15.30;9.48;;;;;;;;;;4821520;29;20058;-74
2021/08/14 12:17:43;;;;;;;19.27;10.10;;;;;;;;;;4821687;29;20117;-74
2021/08/14 12:20:09;;;;;;;18.10;10.95;;;;;;;;;;4820289;29;20129;-74
2021/08/14 12:22:35;;;;;;;16.35;9.95;;;;;;;;;;4821399;29;20042;-74
2021/08/14 12:25:20;;;;;;;19.27;9.55;;;;;;;;;;4821192;29;20345;-75
2021/08/14 12:27:46;;;;;;;14.93;10.32;;;;;;;;;;4820061;29;20460;-73
2021/08/14 12:30:19;;;;;;;19.75;10.70;;;;;;;;;;4820090;29;20058;-74
2021/08/14 12:32:45;;;;;;;15.73;9.85;;;;;;;;;;4821265;29;20030;-74
2021/08/14 12:35:21;;;;;;;15.98;10.77;;;;;;;;;;4820281;29;20058;-73
2021/08/14 12:37:48;;;;;;;17.30;10.00;;;;;;;;;;4819613;29;20052;-74
2021/08/14 12:40:19;;;;;;;18.02;10.63;;;;;;;;;;4819911;29;20337;-74
2021/08/14 12:42:45;;;;;;;20.00;11.68;;;;;;;;;;4834838;29;20503;-74
2021/08/14 12:45:22;;;;;;;14.85;10.70;;;;;;;;;;4819835;29;20102;-74
2021/08/14 12:47:50;;;;;;;16.77;10.07;;;;;;;;;;4821223;29;20026;-73
2021/08/14 12:50:24;;;;;;;20.05;9.90;;;;;;;;;;4834477;29;20034;-73
2021/08/14 12:52:58;;;;;;;19.83;9.55;;;;;;;;;;4821110;29;20567;-74
2021/08/14 12:55:25;;;;;;;18.92;11.13;;;;;;;;;;4819676;29;20040;-75
2021/08/14 12:57:50;;;;;;;24.55;10.70;;;;;;;;;;4819846;29;20069;-75
2021/08/14 13:00:16;;;;;;;15.60;10.07;;;;;;;;;;4819433;29;20495;-75
2021/08/14 13:02:41;;;;;;;15.68;10.25;;;;;;;;;;4834430;29;20038;-74
2021/08/14 13:05:08;;;;;;;18.17;10.88;;;;;;;;;;4820970;29;20456;-74
2021/08/14 13:07:34;;;;;;;16.65;9.88;;;;;;;;;;4834598;29;20030;-74
2021/08/14 13:09:59;;;;;;;18.02;9.85;;;;;;;;;;4819679;29;20372;-75
2021/08/14 13:12:25;;;;;;;16.30;10.20;;;;;;;;;;4820706;29;20033;-74
2021/08/14 13:14:50;;;;;;;17.98;10.45;;;;;;;;;;4820709;29;20019;-74
2021/08/14 13:17:16;;;;;;;17.65;11.23;;;;;;;;;;4820722;29;20079;-74
2021/08/14 13:19:42;;;;;;;16.42;10.63;;;;;;;;;;4819593;29;20099;-74
2021/08/14 13:22:09;;;;;;;20.27;10.80;;;;;;;;;;4819701;29;20139;-76
2021/08/14 13:24:34;;;;;;;21.08;11.80;;;;;;;;;;4819460;29;20054;-74
2021/08/14 13:27:00;;;;;;;16.13;10.90;;;;;;;;;;4819454;29;20392;-75
2021/08/14 13:29:26;;;;;;;19.08;11.13;;;;;;;;;;4834333;29;20065;-73
2021/08/14 13:31:53;;;;;;;18.45;11.18;;;;;;;;;;4819173;29;20058;-74
2021/08/14 13:34:19;;;;;;;19.13;12.20;;;;;;;;;;4818916;29;20026;-73
2021/08/14 13:36:44;;;;;;;18.92;10.90;;;;;;;;;;4820449;29;20038;-74
2021/08/14 13:39:09;;;;;;;18.92;11.70;;;;;;;;;;4820334;29;20806;-74
2021/08/14 13:41:35;;;;;;;22.42;12.13;;;;;;;;;;4818789;29;20033;-74
2021/08/14 13:44:04;;;;;;;16.33;11.25;;;;;;;;;;4819044;29;20523;-74
2021/08/14 13:46:31;;;;;;;19.20;10.82;;;;;;;;;;4818764;29;20071;-74
2021/08/14 13:48:56;;;;;;;16.00;11.95;;;;;;;;;;4819317;29;20384;-74
2021/08/14 13:51:22;;;;;;;18.20;11.13;;;;;;;;;;4834130;29;20102;-73
2021/08/14 13:53:47;;;;;;;17.27;11.20;;;;;;;;;;4834011;29;20026;-73
2021/08/14 13:56:13;;;;;;;19.67;11.55;;;;;;;;;;4834076;29;20164;-73
2021/08/14 13:58:38;;;;;;;14.38;9.60;;;;;;;;;;4820152;29;20243;-74
2021/08/14 14:01:04;;;;;;;14.80;10.48;;;;;;;;;;4833900;29;20099;-74
2021/08/14 14:03:30;;;;;;;15.63;10.18;;;;;;;;;;4833785;29;20034;-73
2021/08/14 14:05:55;;;;;;;18.70;10.93;;;;;;;;;;4818866;29;20050;-75
2021/08/14 14:08:21;;;;;;;16.05;10.48;;;;;;;;;;4818547;29;20077;-76
2021/08/14 14:10:46;;;;;;;13.70;10.02;;;;;;;;;;4820265;29;20445;-75
2021/08/14 14:13:12;;;;;;;17.13;10.30;;;;;;;;;;4833811;29;20030;-76
2021/08/14 14:15:39;;;;;;;16.85;9.68;;;;;;;;;;4822085;29;20026;-82
2021/08/14 14:18:04;;;;;;;16.02;9.82;;;;;;;;;;4823021;29;20152;-78
2021/08/14 14:20:30;;;;;;;16.25;11.10;;;;;;;;;;4822807;29;20061;-80